sensor_id;sensor_type;location;lat;lon;timestamp;temperature;humidity
25839;DHT22;13669;50.186;27.062;2022-10-16T00:01:37;7.70;99.90
25839;DHT22;13669;50.186;27.062;2022-10-16T00:04:05;7.70;99.90
25839;DHT22;13669;50.186;27.062;2022-10-16T00:06:33;7.70;99.90
25839;DHT22;13669;50.186;27.062;2022-10-16T00:09:00;7.70;99.90
25839;DHT22;13669;50.186;27.062;2022-10-16T00:11:33;7.70;99.90
25839;DHT22;13669;50.186;27.062;2022-10-16T00:14:06;7.70;99.90
25839;DHT22;13669;50.186;27.062;2022-10-16T00:16:34;7.70;99.90
25839;DHT22;13669;50.186;27.062;2022-10-16T00:19:02;7.70;99.90
25839;DHT22;13669;50.186;27.062;2022-10-16T00:21:31;7.70;99.90
25839;DHT22;13669;50.186;27.062;2022-10-16T00:24:01;7.70;99.90
25839;DHT22;13669;50.186;27.062;2022-10-16T00:26:31;7.60;99.90
25839;DHT22;13669;50.186;27.062;2022-10-16T00:28:58;7.70;99.90
25839;DHT22;13669;50.186;27.062;2022-10-16T00:31:26;7.60;99.90
25839;DHT22;13669;50.186;27.062;2022-10-16T00:33:54;7.60;99.90
25839;DHT22;13669;50.186;27.062;2022-10-16T00:36:24;7.50;99.90
25839;DHT22;13669;50.186;27.062;2022-10-16T00:38:54;7.50;99.90
25839;DHT22;13669;50.186;27.062;2022-10-16T00:41:24;7.50;99.90
25839;DHT22;13669;50.186;27.062;2022-10-16T00:43:57;7.50;99.90
25839;DHT22;13669;50.186;27.062;2022-10-16T00:51:34;7.40;1.00
25839;DHT22;13669;50.186;27.062;2022-10-16T00:54:04;7.30;1.00
25839;DHT22;13669;50.186;27.062;2022-10-16T00:56:33;7.40;1.00
25839;DHT22;13669;50.186;27.062;2022-10-16T00:59:04;7.30;1.00
25839;DHT22;13669;50.186;27.062;2022-10-16T01:01:34;7.30;1.00
25839;DHT22;13669;50.186;27.062;2022-10-16T01:04:02;7.20;1.00
25839;DHT22;13669;50.186;27.062;2022-10-16T01:06:42;7.20;1.00
25839;DHT22;13669;50.186;27.062;2022-10-16T01:11:55;7.20;1.00
25839;DHT22;13669;50.186;27.062;2022-10-16T01:17:10;7.10;39.50
25839;DHT22;13669;50.186;27.062;2022-10-16T01:19:56;7.00;78.60
25839;DHT22;13669;50.186;27.062;2022-10-16T01:22:46;7.00;99.90
25839;DHT22;13669;50.186;27.062;2022-10-16T01:25:25;7.00;99.90
25839;DHT22;13669;50.186;27.062;2022-10-16T01:27:54;7.00;99.90
25839;DHT22;13669;50.186;27.062;2022-10-16T01:30:27;6.90;99.90
25839;DHT22;13669;50.186;27.062;2022-10-16T01:33:19;6.80;99.90
25839;DHT22;13669;50.186;27.062;2022-10-16T01:35:52;6.80;1.00
25839;DHT22;13669;50.186;27.062;2022-10-16T01:38:31;6.70;1.00
25839;DHT22;13669;50.186;27.062;2022-10-16T01:41:09;6.70;1.00
25839;DHT22;13669;50.186;27.062;2022-10-16T01:43:43;6.70;1.00
25839;DHT22;13669;50.186;27.062;2022-10-16T01:46:14;6.70;20.90
25839;DHT22;13669;50.186;27.062;2022-10-16T01:48:44;6.70;1.00
25839;DHT22;13669;50.186;27.062;2022-10-16T01:51:13;6.70;1.00
25839;DHT22;13669;50.186;27.062;2022-10-16T01:53:45;6.70;1.00
25839;DHT22;13669;50.186;27.062;2022-10-16T01:56:15;6.70;1.00
25839;DHT22;13669;50.186;27.062;2022-10-16T01:58:49;6.70;28.50
25839;DHT22;13669;50.186;27.062;2022-10-16T02:01:19;6.70;1.00
25839;DHT22;13669;50.186;27.062;2022-10-16T02:03:51;6.60;1.00
25839;DHT22;13669;50.186;27.062;2022-10-16T02:06:20;6.60;1.00
25839;DHT22;13669;50.186;27.062;2022-10-16T02:08:49;6.60;24.90
25839;DHT22;13669;50.186;27.062;2022-10-16T02:11:16;6.60;93.50
25839;DHT22;13669;50.186;27.062;2022-10-16T02:13:46;6.60;92.50
25839;DHT22;13669;50.186;27.062;2022-10-16T02:16:15;6.50;86.90
25839;DHT22;13669;50.186;27.062;2022-10-16T02:18:43;6.50;99.90
25839;DHT22;13669;50.186;27.062;2022-10-16T02:21:23;6.50;99.90
25839;DHT22;13669;50.186;27.062;2022-10-16T02:26:36;6.50;99.90
25839;DHT22;13669;50.186;27.062;2022-10-16T02:29:08;6.40;99.90
25839;DHT22;13669;50.186;27.062;2022-10-16T02:31:41;6.40;99.90
25839;DHT22;13669;50.186;27.062;2022-10-16T02:34:12;6.40;99.90
25839;DHT22;13669;50.186;27.062;2022-10-16T02:36:42;6.40;99.90
25839;DHT22;13669;50.186;27.062;2022-10-16T02:39:10;6.40;99.90
25839;DHT22;13669;50.186;27.062;2022-10-16T02:41:38;6.50;99.90
25839;DHT22;13669;50.186;27.062;2022-10-16T02:44:05;6.50;99.90
25839;DHT22;13669;50.186;27.062;2022-10-16T02:46:33;6.50;99.90
25839;DHT22;13669;50.186;27.062;2022-10-16T02:49:00;6.50;99.90
25839;DHT22;13669;50.186;27.062;2022-10-16T02:51:28;6.50;99.90
25839;DHT22;13669;50.186;27.062;2022-10-16T02:53:55;6.50;99.90
25839;DHT22;13669;50.186;27.062;2022-10-16T02:56:22;6.40;99.90
25839;DHT22;13669;50.186;27.062;2022-10-16T02:58:51;6.40;99.90
25839;DHT22;13669;50.186;27.062;2022-10-16T03:01:18;6.40;99.90
25839;DHT22;13669;50.186;27.062;2022-10-16T03:03:46;6.40;99.90
25839;DHT22;13669;50.186;27.062;2022-10-16T03:06:13;6.30;99.90
25839;DHT22;13669;50.186;27.062;2022-10-16T03:08:41;6.30;99.90
25839;DHT22;13669;50.186;27.062;2022-10-16T03:11:08;6.30;99.90
25839;DHT22;13669;50.186;27.062;2022-10-16T03:13:36;6.30;99.90
25839;DHT22;13669;50.186;27.062;2022-10-16T03:16:04;6.30;99.90
25839;DHT22;13669;50.186;27.062;2022-10-16T03:18:31;6.30;99.90
25839;DHT22;13669;50.186;27.062;2022-10-16T03:20:58;6.30;99.90
25839;DHT22;13669;50.186;27.062;2022-10-16T03:23:26;6.30;99.90
25839;DHT22;13669;50.186;27.062;2022-10-16T03:25:54;6.20;99.90
25839;DHT22;13669;50.186;27.062;2022-10-16T03:28:21;6.20;99.90
25839;DHT22;13669;50.186;27.062;2022-10-16T03:30:48;6.20;1.00
25839;DHT22;13669;50.186;27.062;2022-10-16T03:33:16;6.20;99.90
25839;DHT22;13669;50.186;27.062;2022-10-16T03:35:51;6.20;99.90
25839;DHT22;13669;50.186;27.062;2022-10-16T03:38:19;6.10;99.90
25839;DHT22;13669;50.186;27.062;2022-10-16T03:40:47;6.10;1.00
25839;DHT22;13669;50.186;27.062;2022-10-16T03:43:14;6.10;99.90
25839;DHT22;13669;50.186;27.062;2022-10-16T03:45:41;6.00;99.90
25839;DHT22;13669;50.186;27.062;2022-10-16T03:48:11;6.00;99.90
25839;DHT22;13669;50.186;27.062;2022-10-16T03:50:38;6.00;71.60
25839;DHT22;13669;50.186;27.062;2022-10-16T03:53:05;6.10;99.90
25839;DHT22;13669;50.186;27.062;2022-10-16T03:55:34;6.00;99.90
25839;DHT22;13669;50.186;27.062;2022-10-16T03:58:01;6.00;99.90
25839;DHT22;13669;50.186;27.062;2022-10-16T04:00:29;6.00;99.90
25839;DHT22;13669;50.186;27.062;2022-10-16T04:02:56;6.00;99.90
25839;DHT22;13669;50.186;27.062;2022-10-16T04:05:24;5.90;99.90
25839;DHT22;13669;50.186;27.062;2022-10-16T04:07:51;6.00;99.90
25839;DHT22;13669;50.186;27.062;2022-10-16T04:10:19;6.00;99.90
25839;DHT22;13669;50.186;27.062;2022-10-16T04:12:46;6.00;99.90
25839;DHT22;13669;50.186;27.062;2022-10-16T04:15:13;6.00;99.90
25839;DHT22;13669;50.186;27.062;2022-10-16T04:17:41;6.00;99.90
25839;DHT22;13669;50.186;27.062;2022-10-16T04:20:08;6.00;99.90
25839;DHT22;13669;50.186;27.062;2022-10-16T04:22:36;6.00;99.90
25839;DHT22;13669;50.186;27.062;2022-10-16T04:25:04;6.00;97.40
25839;DHT22;13669;50.186;27.062;2022-10-16T04:27:31;5.90;99.90
25839;DHT22;13669;50.186;27.062;2022-10-16T04:30:00;5.90;99.90
25839;DHT22;13669;50.186;27.062;2022-10-16T04:32:27;6.00;99.90
25839;DHT22;13669;50.186;27.062;2022-10-16T04:34:55;5.90;99.90
25839;DHT22;13669;50.186;27.062;2022-10-16T04:37:26;5.90;99.90
25839;DHT22;13669;50.186;27.062;2022-10-16T04:39:55;5.80;99.90
25839;DHT22;13669;50.186;27.062;2022-10-16T04:42:22;5.80;1.00
25839;DHT22;13669;50.186;27.062;2022-10-16T04:44:50;5.80;1.00
25839;DHT22;13669;50.186;27.062;2022-10-16T04:47:17;5.90;99.90
25839;DHT22;13669;50.186;27.062;2022-10-16T04:49:44;5.80;99.90
25839;DHT22;13669;50.186;27.062;2022-10-16T04:52:12;5.90;1.00
25839;DHT22;13669;50.186;27.062;2022-10-16T04:54:39;5.80;99.90
25839;DHT22;13669;50.186;27.062;2022-10-16T04:57:07;5.80;1.00
25839;DHT22;13669;50.186;27.062;2022-10-16T04:59:34;5.90;99.90
25839;DHT22;13669;50.186;27.062;2022-10-16T05:02:02;5.90;99.90
25839;DHT22;13669;50.186;27.062;2022-10-16T05:04:29;6.00;99.90
25839;DHT22;13669;50.186;27.062;2022-10-16T05:06:56;6.00;99.90
25839;DHT22;13669;50.186;27.062;2022-10-16T05:09:24;6.00;99.90
25839;DHT22;13669;50.186;27.062;2022-10-16T05:11:51;6.00;76.50
25839;DHT22;13669;50.186;27.062;2022-10-16T05:14:19;6.10;1.00
25839;DHT22;13669;50.186;27.062;2022-10-16T05:16:46;6.10;1.00
25839;DHT22;13669;50.186;27.062;2022-10-16T05:19:15;6.20;1.00
25839;DHT22;13669;50.186;27.062;2022-10-16T05:21:54;6.20;1.00
25839;DHT22;13669;50.186;27.062;2022-10-16T05:24:21;6.20;1.00
25839;DHT22;13669;50.186;27.062;2022-10-16T05:26:50;6.20;1.00
25839;DHT22;13669;50.186;27.062;2022-10-16T05:29:17;6.20;1.00
25839;DHT22;13669;50.186;27.062;2022-10-16T05:31:45;6.30;1.00
25839;DHT22;13669;50.186;27.062;2022-10-16T05:34:12;6.30;1.00
25839;DHT22;13669;50.186;27.062;2022-10-16T05:36:40;6.30;99.90
25839;DHT22;13669;50.186;27.062;2022-10-16T05:39:07;6.30;99.90
25839;DHT22;13669;50.186;27.062;2022-10-16T05:41:34;6.40;99.90
25839;DHT22;13669;50.186;27.062;2022-10-16T05:44:05;6.40;99.90
25839;DHT22;13669;50.186;27.062;2022-10-16T05:46:33;6.50;99.90
25839;DHT22;13669;50.186;27.062;2022-10-16T05:49:01;6.50;99.90
25839;DHT22;13669;50.186;27.062;2022-10-16T05:51:28;6.50;99.90
25839;DHT22;13669;50.186;27.062;2022-10-16T05:53:55;6.60;99.90
25839;DHT22;13669;50.186;27.062;2022-10-16T05:56:23;6.70;99.90
25839;DHT22;13669;50.186;27.062;2022-10-16T05:58:50;6.80;1.00
25839;DHT22;13669;50.186;27.062;2022-10-16T06:01:18;6.80;1.00
25839;DHT22;13669;50.186;27.062;2022-10-16T06:03:46;6.90;1.00
25839;DHT22;13669;50.186;27.062;2022-10-16T06:06:16;7.10;99.90
25839;DHT22;13669;50.186;27.062;2022-10-16T06:08:44;7.20;99.90
25839;DHT22;13669;50.186;27.062;2022-10-16T06:11:22;7.20;99.90
25839;DHT22;13669;50.186;27.062;2022-10-16T06:13:50;7.30;56.60
25839;DHT22;13669;50.186;27.062;2022-10-16T06:16:18;7.30;99.90
25839;DHT22;13669;50.186;27.062;2022-10-16T06:18:46;7.40;1.30
25839;DHT22;13669;50.186;27.062;2022-10-16T06:21:17;7.50;1.00
25839;DHT22;13669;50.186;27.062;2022-10-16T06:23:45;7.40;1.00
25839;DHT22;13669;50.186;27.062;2022-10-16T06:26:18;7.40;1.00
25839;DHT22;13669;50.186;27.062;2022-10-16T06:28:46;7.40;1.00
25839;DHT22;13669;50.186;27.062;2022-10-16T06:31:14;7.50;1.00
25839;DHT22;13669;50.186;27.062;2022-10-16T06:33:42;7.50;1.00
25839;DHT22;13669;50.186;27.062;2022-10-16T06:36:14;7.60;1.00
25839;DHT22;13669;50.186;27.062;2022-10-16T06:38:42;7.60;1.00
25839;DHT22;13669;50.186;27.062;2022-10-16T06:41:12;7.60;1.00
25839;DHT22;13669;50.186;27.062;2022-10-16T06:43:39;7.70;1.00
25839;DHT22;13669;50.186;27.062;2022-10-16T06:46:10;7.70;1.00
25839;DHT22;13669;50.186;27.062;2022-10-16T06:48:38;7.90;1.00
25839;DHT22;13669;50.186;27.062;2022-10-16T06:51:09;7.90;1.00
25839;DHT22;13669;50.186;27.062;2022-10-16T06:53:38;8.00;1.00
25839;DHT22;13669;50.186;27.062;2022-10-16T06:56:27;8.00;1.00
25839;DHT22;13669;50.186;27.062;2022-10-16T06:58:56;8.10;99.90
25839;DHT22;13669;50.186;27.062;2022-10-16T07:01:24;8.10;99.90
25839;DHT22;13669;50.186;27.062;2022-10-16T07:03:52;8.10;99.90
25839;DHT22;13669;50.186;27.062;2022-10-16T07:06:21;8.20;99.90
25839;DHT22;13669;50.186;27.062;2022-10-16T07:08:49;8.30;99.90
25839;DHT22;13669;50.186;27.062;2022-10-16T07:11:20;8.30;99.90
25839;DHT22;13669;50.186;27.062;2022-10-16T07:13:48;8.30;1.00
25839;DHT22;13669;50.186;27.062;2022-10-16T07:16:29;8.30;1.00
25839;DHT22;13669;50.186;27.062;2022-10-16T07:19:00;8.30;1.00
25839;DHT22;13669;50.186;27.062;2022-10-16T07:21:32;8.40;1.00
25839;DHT22;13669;50.186;27.062;2022-10-16T07:24:05;8.50;1.00
25839;DHT22;13669;50.186;27.062;2022-10-16T07:26:35;8.60;1.00
25839;DHT22;13669;50.186;27.062;2022-10-16T07:29:03;8.70;1.00
25839;DHT22;13669;50.186;27.062;2022-10-16T07:31:31;8.80;1.00
25839;DHT22;13669;50.186;27.062;2022-10-16T07:33:59;8.90;1.00
25839;DHT22;13669;50.186;27.062;2022-10-16T07:36:27;9.00;1.00
25839;DHT22;13669;50.186;27.062;2022-10-16T07:38:55;9.10;1.00
25839;DHT22;13669;50.186;27.062;2022-10-16T07:41:27;9.20;1.00
25839;DHT22;13669;50.186;27.062;2022-10-16T07:43:56;9.30;99.90
25839;DHT22;13669;50.186;27.062;2022-10-16T07:46:27;9.40;99.90
25839;DHT22;13669;50.186;27.062;2022-10-16T07:48:55;9.60;99.90
25839;DHT22;13669;50.186;27.062;2022-10-16T07:51:24;9.70;99.90
25839;DHT22;13669;50.186;27.062;2022-10-16T07:53:52;9.80;99.90
25839;DHT22;13669;50.186;27.062;2022-10-16T07:56:20;9.90;99.90
25839;DHT22;13669;50.186;27.062;2022-10-16T07:58:49;10.00;99.90
25839;DHT22;13669;50.186;27.062;2022-10-16T08:01:17;10.10;99.90
25839;DHT22;13669;50.186;27.062;2022-10-16T08:03:50;10.10;99.90
25839;DHT22;13669;50.186;27.062;2022-10-16T08:06:20;10.10;99.90
25839;DHT22;13669;50.186;27.062;2022-10-16T08:08:55;10.30;99.90
25839;DHT22;13669;50.186;27.062;2022-10-16T08:11:23;10.40;99.90
25839;DHT22;13669;50.186;27.062;2022-10-16T08:13:50;10.50;99.90
25839;DHT22;13669;50.186;27.062;2022-10-16T08:16:18;10.50;99.90
25839;DHT22;13669;50.186;27.062;2022-10-16T08:18:46;10.60;99.90
25839;DHT22;13669;50.186;27.062;2022-10-16T08:21:16;10.70;99.90
25839;DHT22;13669;50.186;27.062;2022-10-16T08:23:48;10.80;96.40
25839;DHT22;13669;50.186;27.062;2022-10-16T08:26:25;10.80;96.80
25839;DHT22;13669;50.186;27.062;2022-10-16T08:28:54;10.90;92.90
25839;DHT22;13669;50.186;27.062;2022-10-16T08:31:22;11.10;99.90
25839;DHT22;13669;50.186;27.062;2022-10-16T08:33:50;11.10;75.60
25839;DHT22;13669;50.186;27.062;2022-10-16T08:36:18;11.20;51.00
25839;DHT22;13669;50.186;27.062;2022-10-16T08:38:49;11.20;38.50
25839;DHT22;13669;50.186;27.062;2022-10-16T08:44:23;11.40;34.90
25839;DHT22;13669;50.186;27.062;2022-10-16T08:49:36;11.80;12.70
25839;DHT22;13669;50.186;27.062;2022-10-16T08:52:06;11.80;1.00
25839;DHT22;13669;50.186;27.062;2022-10-16T08:54:42;11.90;1.00
25839;DHT22;13669;50.186;27.062;2022-10-16T08:57:17;11.90;1.00
25839;DHT22;13669;50.186;27.062;2022-10-16T08:59:51;12.00;1.00
25839;DHT22;13669;50.186;27.062;2022-10-16T09:10:17;12.30;1.00
25839;DHT22;13669;50.186;27.062;2022-10-16T09:18:57;12.30;1.00
25839;DHT22;13669;50.186;27.062;2022-10-16T09:21:35;12.50;1.00
25839;DHT22;13669;50.186;27.062;2022-10-16T09:24:18;12.50;1.00
25839;DHT22;13669;50.186;27.062;2022-10-16T09:26:46;12.50;1.00
25839;DHT22;13669;50.186;27.062;2022-10-16T09:29:16;12.60;1.00
25839;DHT22;13669;50.186;27.062;2022-10-16T09:31:44;12.70;1.00
25839;DHT22;13669;50.186;27.062;2022-10-16T09:36:51;12.90;1.00
25839;DHT22;13669;50.186;27.062;2022-10-16T09:39:19;13.00;1.00
25839;DHT22;13669;50.186;27.062;2022-10-16T09:41:46;12.90;1.00
25839;DHT22;13669;50.186;27.062;2022-10-16T09:44:34;12.90;1.00
25839;DHT22;13669;50.186;27.062;2022-10-16T09:47:11;13.00;1.00
25839;DHT22;13669;50.186;27.062;2022-10-16T09:49:39;12.90;1.00
25839;DHT22;13669;50.186;27.062;2022-10-16T09:52:12;13.00;1.00
25839;DHT22;13669;50.186;27.062;2022-10-16T09:54:54;13.20;1.00
25839;DHT22;13669;50.186;27.062;2022-10-16T09:57:21;13.20;1.00
25839;DHT22;13669;50.186;27.062;2022-10-16T09:59:52;13.30;1.00
25839;DHT22;13669;50.186;27.062;2022-10-16T10:02:44;13.30;1.00
25839;DHT22;13669;50.186;27.062;2022-10-16T10:05:20;13.30;99.90
25839;DHT22;13669;50.186;27.062;2022-10-16T10:08:01;13.30;99.90
25839;DHT22;13669;50.186;27.062;2022-10-16T10:10:41;13.50;99.90
25839;DHT22;13669;50.186;27.062;2022-10-16T10:13:22;13.50;99.90
25839;DHT22;13669;50.186;27.062;2022-10-16T10:15:51;13.70;99.90
25839;DHT22;13669;50.186;27.062;2022-10-16T10:18:21;13.80;99.90
25839;DHT22;13669;50.186;27.062;2022-10-16T10:21:00;13.90;99.90
25839;DHT22;13669;50.186;27.062;2022-10-16T10:23:29;14.10;99.90
25839;DHT22;13669;50.186;27.062;2022-10-16T10:28:53;14.20;99.90
25839;DHT22;13669;50.186;27.062;2022-10-16T10:42:47;14.20;99.90
25839;DHT22;13669;50.186;27.062;2022-10-16T10:48:17;14.40;99.90
25839;DHT22;13669;50.186;27.062;2022-10-16T10:51:08;14.40;99.90
25839;DHT22;13669;50.186;27.062;2022-10-16T10:57:02;14.80;99.90
25839;DHT22;13669;50.186;27.062;2022-10-16T10:59:57;15.00;99.90
25839;DHT22;13669;50.186;27.062;2022-10-16T11:08:22;16.40;99.90
25839;DHT22;13669;50.186;27.062;2022-10-16T11:10:58;17.00;99.90
25839;DHT22;13669;50.186;27.062;2022-10-16T11:16:35;18.50;99.90
25839;DHT22;13669;50.186;27.062;2022-10-16T11:19:14;19.10;99.90
25839;DHT22;13669;50.186;27.062;2022-10-16T11:21:59;19.70;99.90
25839;DHT22;13669;50.186;27.062;2022-10-16T11:25:02;20.70;99.90
25839;DHT22;13669;50.186;27.062;2022-10-16T11:27:44;22.40;99.90
25839;DHT22;13669;50.186;27.062;2022-10-16T11:30:26;23.20;99.90
25839;DHT22;13669;50.186;27.062;2022-10-16T11:35:43;22.00;99.90
25839;DHT22;13669;50.186;27.062;2022-10-16T11:44:18;21.40;99.90
25839;DHT22;13669;50.186;27.062;2022-10-16T11:52:48;22.00;99.90
25839;DHT22;13669;50.186;27.062;2022-10-16T11:55:22;22.20;99.90
25839;DHT22;13669;50.186;27.062;2022-10-16T11:57:54;22.10;99.90
25839;DHT22;13669;50.186;27.062;2022-10-16T12:00:30;21.90;99.90
25839;DHT22;13669;50.186;27.062;2022-10-16T12:06:06;21.50;99.90
25839;DHT22;13669;50.186;27.062;2022-10-16T12:08:38;21.60;99.90
25839;DHT22;13669;50.186;27.062;2022-10-16T12:16:51;22.30;99.90
25839;DHT22;13669;50.186;27.062;2022-10-16T12:19:20;23.00;99.90
25839;DHT22;13669;50.186;27.062;2022-10-16T12:21:49;22.30;99.90
25839;DHT22;13669;50.186;27.062;2022-10-16T12:24:38;21.30;99.90
25839;DHT22;13669;50.186;27.062;2022-10-16T12:27:32;20.70;99.90
25839;DHT22;13669;50.186;27.062;2022-10-16T12:30:04;21.20;99.90
25839;DHT22;13669;50.186;27.062;2022-10-16T12:32:37;21.60;99.90
25839;DHT22;13669;50.186;27.062;2022-10-16T12:35:29;22.30;99.90
25839;DHT22;13669;50.186;27.062;2022-10-16T12:40:46;21.70;99.90
25839;DHT22;13669;50.186;27.062;2022-10-16T12:43:23;21.00;99.90
25839;DHT22;13669;50.186;27.062;2022-10-16T12:45:59;20.90;99.90
25839;DHT22;13669;50.186;27.062;2022-10-16T12:48:26;20.40;99.90
25839;DHT22;13669;50.186;27.062;2022-10-16T12:54:17;20.50;99.90
25839;DHT22;13669;50.186;27.062;2022-10-16T13:00:21;21.00;99.90
25839;DHT22;13669;50.186;27.062;2022-10-16T13:05:30;21.50;99.90
25839;DHT22;13669;50.186;27.062;2022-10-16T13:11:08;22.90;99.90
25839;DHT22;13669;50.186;27.062;2022-10-16T13:29:53;21.60;99.90
25839;DHT22;13669;50.186;27.062;2022-10-16T13:32:22;21.50;99.90
25839;DHT22;13669;50.186;27.062;2022-10-16T13:34:50;21.30;99.90
25839;DHT22;13669;50.186;27.062;2022-10-16T13:37:21;21.90;99.90
25839;DHT22;13669;50.186;27.062;2022-10-16T13:39:49;21.90;99.90
25839;DHT22;13669;50.186;27.062;2022-10-16T13:42:26;21.90;99.90
25839;DHT22;13669;50.186;27.062;2022-10-16T13:44:56;21.60;99.90
25839;DHT22;13669;50.186;27.062;2022-10-16T13:47:28;21.40;99.90
25839;DHT22;13669;50.186;27.062;2022-10-16T13:50:12;20.70;99.90
25839;DHT22;13669;50.186;27.062;2022-10-16T13:52:40;19.70;99.90
25839;DHT22;13669;50.186;27.062;2022-10-16T13:55:12;19.60;99.90
25839;DHT22;13669;50.186;27.062;2022-10-16T13:57:40;20.00;99.90
25839;DHT22;13669;50.186;27.062;2022-10-16T14:00:19;20.20;99.90
25839;DHT22;13669;50.186;27.062;2022-10-16T14:03:13;19.80;99.90
25839;DHT22;13669;50.186;27.062;2022-10-16T14:05:52;19.50;99.90
25839;DHT22;13669;50.186;27.062;2022-10-16T14:08:21;18.80;99.90
25839;DHT22;13669;50.186;27.062;2022-10-16T14:10:52;19.40;99.90
25839;DHT22;13669;50.186;27.062;2022-10-16T14:13:34;19.90;99.90
25839;DHT22;13669;50.186;27.062;2022-10-16T14:16:08;20.70;99.90
25839;DHT22;13669;50.186;27.062;2022-10-16T14:18:38;21.60;99.90
25839;DHT22;13669;50.186;27.062;2022-10-16T14:21:07;22.00;99.90
25839;DHT22;13669;50.186;27.062;2022-10-16T14:23:39;22.20;99.90
25839;DHT22;13669;50.186;27.062;2022-10-16T14:28:37;22.00;99.90
25839;DHT22;13669;50.186;27.062;2022-10-16T14:33:47;21.20;99.90
25839;DHT22;13669;50.186;27.062;2022-10-16T14:36:15;20.60;99.90
25839;DHT22;13669;50.186;27.062;2022-10-16T14:39:05;20.00;99.90
25839;DHT22;13669;50.186;27.062;2022-10-16T14:41:41;19.50;99.90
25839;DHT22;13669;50.186;27.062;2022-10-16T14:44:11;19.40;99.90
25839;DHT22;13669;50.186;27.062;2022-10-16T14:46:41;19.40;99.90
25839;DHT22;13669;50.186;27.062;2022-10-16T14:51:38;19.10;99.90
25839;DHT22;13669;50.186;27.062;2022-10-16T14:54:12;18.80;99.90
25839;DHT22;13669;50.186;27.062;2022-10-16T14:56:49;18.80;99.90
25839;DHT22;13669;50.186;27.062;2022-10-16T14:59:22;18.50;99.90
25839;DHT22;13669;50.186;27.062;2022-10-16T15:01:52;18.30;99.90
25839;DHT22;13669;50.186;27.062;2022-10-16T15:04:19;18.10;99.90
25839;DHT22;13669;50.186;27.062;2022-10-16T15:06:47;18.00;99.90
25839;DHT22;13669;50.186;27.062;2022-10-16T15:09:14;17.60;99.90
25839;DHT22;13669;50.186;27.062;2022-10-16T15:11:42;17.30;99.90
25839;DHT22;13669;50.186;27.062;2022-10-16T15:14:12;16.80;99.90
25839;DHT22;13669;50.186;27.062;2022-10-16T15:16:41;16.50;99.90
25839;DHT22;13669;50.186;27.062;2022-10-16T15:19:08;16.00;99.90
25839;DHT22;13669;50.186;27.062;2022-10-16T15:21:36;15.50;99.90
25839;DHT22;13669;50.186;27.062;2022-10-16T15:24:08;15.20;99.90
25839;DHT22;13669;50.186;27.062;2022-10-16T15:26:36;14.90;99.90
25839;DHT22;13669;50.186;27.062;2022-10-16T15:29:04;14.50;99.90
25839;DHT22;13669;50.186;27.062;2022-10-16T15:31:32;14.20;99.90
25839;DHT22;13669;50.186;27.062;2022-10-16T15:33:59;13.90;99.90
25839;DHT22;13669;50.186;27.062;2022-10-16T15:36:34;13.70;99.90
25839;DHT22;13669;50.186;27.062;2022-10-16T15:39:05;13.60;99.90
25839;DHT22;13669;50.186;27.062;2022-10-16T15:41:33;13.50;99.90
25839;DHT22;13669;50.186;27.062;2022-10-16T15:44:00;13.40;99.90
25839;DHT22;13669;50.186;27.062;2022-10-16T15:46:28;13.30;99.90
25839;DHT22;13669;50.186;27.062;2022-10-16T15:48:58;13.20;99.90
25839;DHT22;13669;50.186;27.062;2022-10-16T15:51:27;13.10;99.90
25839;DHT22;13669;50.186;27.062;2022-10-16T15:53:56;13.10;99.90
25839;DHT22;13669;50.186;27.062;2022-10-16T15:56:24;13.00;99.90
25839;DHT22;13669;50.186;27.062;2022-10-16T15:58:52;12.80;99.90
25839;DHT22;13669;50.186;27.062;2022-10-16T16:01:21;12.70;99.90
25839;DHT22;13669;50.186;27.062;2022-10-16T16:03:53;12.70;99.90
25839;DHT22;13669;50.186;27.062;2022-10-16T16:06:21;12.60;99.90
25839;DHT22;13669;50.186;27.062;2022-10-16T16:08:50;12.50;99.90
25839;DHT22;13669;50.186;27.062;2022-10-16T16:11:19;12.40;99.90
25839;DHT22;13669;50.186;27.062;2022-10-16T16:13:47;12.30;99.90
25839;DHT22;13669;50.186;27.062;2022-10-16T16:16:16;12.20;99.90
25839;DHT22;13669;50.186;27.062;2022-10-16T16:18:44;12.20;99.90
25839;DHT22;13669;50.186;27.062;2022-10-16T16:21:12;12.10;99.90
25839;DHT22;13669;50.186;27.062;2022-10-16T16:23:40;12.00;99.90
25839;DHT22;13669;50.186;27.062;2022-10-16T16:26:24;12.00;99.90
25839;DHT22;13669;50.186;27.062;2022-10-16T16:28:54;12.00;99.90
25839;DHT22;13669;50.186;27.062;2022-10-16T16:31:27;11.90;99.90
25839;DHT22;13669;50.186;27.062;2022-10-16T16:33:56;11.80;99.90
25839;DHT22;13669;50.186;27.062;2022-10-16T16:36:24;11.80;99.90
25839;DHT22;13669;50.186;27.062;2022-10-16T16:38:52;11.70;99.90
25839;DHT22;13669;50.186;27.062;2022-10-16T16:41:22;11.70;99.90
25839;DHT22;13669;50.186;27.062;2022-10-16T16:43:50;11.70;99.90
25839;DHT22;13669;50.186;27.062;2022-10-16T16:46:19;11.70;99.90
25839;DHT22;13669;50.186;27.062;2022-10-16T16:48:47;11.60;99.90
25839;DHT22;13669;50.186;27.062;2022-10-16T16:51:18;11.60;99.90
25839;DHT22;13669;50.186;27.062;2022-10-16T16:53:51;11.50;99.90
25839;DHT22;13669;50.186;27.062;2022-10-16T16:56:21;11.50;99.90
25839;DHT22;13669;50.186;27.062;2022-10-16T16:58:51;11.50;99.90
25839;DHT22;13669;50.186;27.062;2022-10-16T17:01:20;11.50;99.90
25839;DHT22;13669;50.186;27.062;2022-10-16T17:03:50;11.40;99.90
25839;DHT22;13669;50.186;27.062;2022-10-16T17:06:20;11.40;99.90
25839;DHT22;13669;50.186;27.062;2022-10-16T17:08:49;11.40;99.90
25839;DHT22;13669;50.186;27.062;2022-10-16T17:11:21;11.30;99.90
25839;DHT22;13669;50.186;27.062;2022-10-16T17:13:50;11.30;99.90
25839;DHT22;13669;50.186;27.062;2022-10-16T17:16:29;11.30;99.90
25839;DHT22;13669;50.186;27.062;2022-10-16T17:19:01;11.30;99.90
25839;DHT22;13669;50.186;27.062;2022-10-16T17:21:29;11.30;99.90
25839;DHT22;13669;50.186;27.062;2022-10-16T17:23:58;11.30;99.90
25839;DHT22;13669;50.186;27.062;2022-10-16T17:26:27;11.20;99.90
25839;DHT22;13669;50.186;27.062;2022-10-16T17:28:57;11.20;99.90
25839;DHT22;13669;50.186;27.062;2022-10-16T17:31:27;11.20;99.90
25839;DHT22;13669;50.186;27.062;2022-10-16T17:33:57;11.20;99.90
25839;DHT22;13669;50.186;27.062;2022-10-16T17:36:25;11.20;99.90
25839;DHT22;13669;50.186;27.062;2022-10-16T17:39:05;11.20;99.90
25839;DHT22;13669;50.186;27.062;2022-10-16T17:41:33;11.10;99.90
25839;DHT22;13669;50.186;27.062;2022-10-16T17:44:02;11.20;99.90
25839;DHT22;13669;50.186;27.062;2022-10-16T17:46:30;11.20;99.90
25839;DHT22;13669;50.186;27.062;2022-10-16T17:49:06;11.10;99.90
25839;DHT22;13669;50.186;27.062;2022-10-16T17:51:33;11.10;99.90
25839;DHT22;13669;50.186;27.062;2022-10-16T17:54:01;11.10;99.90
25839;DHT22;13669;50.186;27.062;2022-10-16T17:56:29;11.10;99.90
25839;DHT22;13669;50.186;27.062;2022-10-16T17:58:59;11.00;99.90